Brown Mountain Beach, North Carolina
Current Conditions -  °F | °C
As of 3:15 AM on Tuesday 21 Oct 2014 (Local Time) from KMRN Reporting Station
Haze Haze  
Wind Chill: 44°   Ceiling: 700
Heat Index: 44°   Visibility: 1mi
Dew Point: 44°   Wind: 0mph
Humidity: 100%   Direction: NA
Pressure: 30.01"   Gusts: NA
Location:  35.9726°N, 81.5331°W
Report Text: KMRN 210715Z AUTO 00000KT 1SM BR VV007 07/07 A3001 RMK AO2 T00650065
Loading
Personal Weather Stations






























Interactive Weather Map
Tropical Storm Tracking
New forecast layout! Learn more

10-Day Weather Forecast

Advertisements
Track Severe Weather on mobile